createdAt,value
2017-05-26T00:00:24.151Z,0
2017-05-26T00:01:45.728Z,0
2017-05-26T00:03:07.587Z,0
2017-05-26T00:04:29.485Z,0
2017-05-26T00:05:51.598Z,0
2017-05-26T00:07:13.895Z,0
2017-05-26T00:08:36.047Z,0
2017-05-26T00:09:57.576Z,0
2017-05-26T00:11:20.155Z,0
2017-05-26T00:12:42.306Z,0
2017-05-26T00:14:04.133Z,0
2017-05-26T00:15:25.991Z,0
2017-05-26T00:16:48.234Z,0
2017-05-26T00:18:09.467Z,0
2017-05-26T00:19:31.705Z,0
2017-05-26T00:20:53.852Z,0
2017-05-26T00:22:16.262Z,0
2017-05-26T00:23:38.423Z,0
2017-05-26T00:24:59.994Z,0
2017-05-26T00:26:22.155Z,0
2017-05-26T00:27:44.829Z,0
2017-05-26T00:29:06.341Z,0
2017-05-26T00:30:28.173Z,0
2017-05-26T00:31:49.475Z,0
2017-05-26T00:33:12.065Z,0
2017-05-26T00:34:34.517Z,0
2017-05-26T00:35:56.671Z,0
2017-05-26T00:37:18.813Z,0
2017-05-26T00:38:40.468Z,0
2017-05-26T00:40:02.323Z,0
2017-05-26T00:41:24.145Z,0
2017-05-26T00:42:46.297Z,0
2017-05-26T00:44:08.744Z,0
2017-05-26T00:45:30.364Z,0
2017-05-26T00:46:52.853Z,0
2017-05-26T00:48:14.051Z,0
2017-05-26T00:49:36.963Z,0
2017-05-26T00:50:58.851Z,0
2017-05-26T00:52:20.402Z,0
2017-05-26T00:53:42.572Z,0
2017-05-26T00:55:05.123Z,0
2017-05-26T00:56:27.644Z,0
2017-05-26T00:57:49.793Z,0
2017-05-26T00:59:12.277Z,0
2017-05-26T01:00:34.482Z,0
2017-05-26T01:01:56.333Z,0
2017-05-26T01:03:18.164Z,0
2017-05-26T01:04:40.032Z,0
2017-05-26T01:06:02.122Z,0
2017-05-26T01:07:23.944Z,0
2017-05-26T01:08:45.806Z,0
2017-05-26T01:10:07.952Z,0
2017-05-26T01:11:30.081Z,0
2017-05-26T01:12:52.232Z,0
2017-05-26T01:14:14.382Z,0
2017-05-26T01:15:36.842Z,0
2017-05-26T01:16:59.621Z,0
2017-05-26T01:18:21.484Z,0
2017-05-26T01:19:43.343Z,0
2017-05-26T01:21:05.493Z,0
2017-05-26T01:22:27.470Z,0
2017-05-26T01:23:48.968Z,0
2017-05-26T01:25:10.811Z,0
2017-05-26T01:26:33.343Z,0
2017-05-26T01:27:55.546Z,0
2017-05-26T01:29:17.843Z,0
2017-05-26T01:30:39.738Z,0
2017-05-26T01:32:01.253Z,0
2017-05-26T01:33:23.800Z,0
2017-05-26T01:34:45.631Z,0
2017-05-26T01:36:07.451Z,0
2017-05-26T01:37:29.600Z,0
2017-05-26T01:38:52.160Z,0
2017-05-26T01:40:13.991Z,0
2017-05-26T01:41:35.823Z,0
2017-05-26T01:42:57.450Z,0
2017-05-26T01:44:19.601Z,0
2017-05-26T01:45:41.128Z,0
2017-05-26T01:47:02.645Z,0
2017-05-26T01:48:25.111Z,0
2017-05-26T01:49:47.932Z,0
2017-05-26T01:51:10.402Z,0
2017-05-26T01:52:32.901Z,0
2017-05-26T01:53:55.051Z,0
2017-05-26T01:55:17.674Z,0
2017-05-26T01:56:39.820Z,0
2017-05-26T01:58:01.032Z,0
2017-05-26T01:59:22.959Z,0
2017-05-26T02:00:45.081Z,0
2017-05-26T02:02:07.528Z,0
2017-05-26T02:03:29.030Z,0
2017-05-26T02:04:51.512Z,0
2017-05-26T02:06:13.713Z,0
2017-05-26T02:07:35.871Z,0
2017-05-26T02:08:58.075Z,0
2017-05-26T02:10:20.540Z,0
2017-05-26T02:11:43.083Z,0
2017-05-26T02:13:04.939Z,0
2017-05-26T02:14:27.085Z,0
2017-05-26T02:15:49.558Z,0
2017-05-26T02:17:12.318Z,0
2017-05-26T02:18:34.272Z,0
2017-05-26T02:19:56.107Z,0
2017-05-26T02:21:17.939Z,0
2017-05-26T02:22:39.793Z,0
2017-05-26T02:24:01.621Z,0
2017-05-26T02:25:23.442Z,0
2017-05-26T02:26:45.680Z,0
2017-05-26T02:28:08.139Z,0
2017-05-26T02:29:29.749Z,0
2017-05-26T02:30:51.950Z,0
2017-05-26T02:32:13.803Z,0
2017-05-26T02:33:36.313Z,0
2017-05-26T02:34:58.463Z,0
2017-05-26T02:36:20.601Z,0
2017-05-26T02:37:42.883Z,0
2017-05-26T02:39:04.957Z,0
2017-05-26T02:40:26.472Z,0
2017-05-26T02:41:48.417Z,0
2017-05-26T02:43:10.372Z,0
2017-05-26T02:44:32.237Z,0
2017-05-26T02:45:54.210Z,0
2017-05-26T02:47:16.021Z,0
2017-05-26T02:48:37.851Z,0
2017-05-26T02:50:00.292Z,0
2017-05-26T02:51:21.822Z,0
2017-05-26T02:52:44.407Z,0
2017-05-26T02:54:06.345Z,0
2017-05-26T02:55:28.584Z,0
2017-05-26T02:56:49.782Z,0
2017-05-26T02:58:11.963Z,0
2017-05-26T02:59:34.221Z,0
2017-05-26T03:00:56.862Z,0
2017-05-26T03:02:18.106Z,0
2017-05-26T03:03:39.942Z,0
2017-05-26T03:05:01.523Z,0
2017-05-26T03:06:23.935Z,0
2017-05-26T03:07:45.785Z,0
2017-05-26T03:09:07.300Z,0
2017-05-26T03:10:29.181Z,0
2017-05-26T03:11:52.012Z,0
2017-05-26T03:13:13.930Z,0
2017-05-26T03:14:35.853Z,0
2017-05-26T03:15:56.729Z,0
2017-05-26T03:17:18.351Z,5
2017-05-26T03:18:39.966Z,5
2017-05-26T03:20:01.498Z,5
2017-05-26T03:21:23.655Z,5
2017-05-26T03:22:45.888Z,5
2017-05-26T03:24:07.730Z,5
2017-05-26T03:25:30.161Z,5
2017-05-26T03:26:52.312Z,5
2017-05-26T03:28:14.728Z,10
2017-05-26T03:29:36.242Z,10
2017-05-26T03:30:58.069Z,10
2017-05-26T03:32:19.687Z,10
2017-05-26T03:33:42.092Z,10
2017-05-26T03:35:04.350Z,10
2017-05-26T03:36:26.492Z,10
2017-05-26T03:37:48.332Z,10
2017-05-26T03:39:10.841Z,10
2017-05-26T03:40:32.732Z,10
2017-05-26T03:41:54.710Z,15
2017-05-26T03:43:16.238Z,15
2017-05-26T03:44:38.744Z,15
2017-05-26T03:46:01.202Z,15
2017-05-26T03:47:23.025Z,15
2017-05-26T03:48:44.863Z,15
2017-05-26T03:50:06.901Z,15
2017-05-26T03:51:28.097Z,15
2017-05-26T03:52:49.973Z,15
2017-05-26T03:54:12.135Z,20
2017-05-26T03:55:33.958Z,20
2017-05-26T03:56:55.529Z,20
2017-05-26T03:58:17.042Z,20
2017-05-26T03:59:39.181Z,20
2017-05-26T04:01:01.691Z,20
2017-05-26T04:02:23.982Z,20
2017-05-26T04:03:46.474Z,25
2017-05-26T04:05:08.631Z,25
2017-05-26T04:06:31.192Z,25
2017-05-26T04:07:53.126Z,25
2017-05-26T04:09:15.321Z,25
2017-05-26T04:10:36.531Z,30
2017-05-26T04:11:58.734Z,30
2017-05-26T04:13:21.254Z,35
2017-05-26T04:14:43.503Z,35
2017-05-26T04:16:05.661Z,35
2017-05-26T04:17:27.430Z,30
2017-05-26T04:18:48.638Z,30
2017-05-26T04:20:10.457Z,35
2017-05-26T04:21:32.912Z,35
2017-05-26T04:22:55.702Z,35
2017-05-26T04:24:17.293Z,35
2017-05-26T04:25:39.782Z,40
2017-05-26T04:27:01.683Z,40
2017-05-26T04:28:23.921Z,40
2017-05-26T04:29:46.062Z,45
2017-05-26T04:31:08.229Z,45
2017-05-26T04:32:30.201Z,45
2017-05-26T04:33:52.402Z,45
2017-05-26T04:35:14.251Z,45
2017-05-26T04:36:36.086Z,45
2017-05-26T04:37:58.324Z,45
2017-05-26T04:39:21.039Z,50
2017-05-26T04:40:42.860Z,50
2017-05-26T04:42:05.322Z,50
2017-05-26T04:43:26.830Z,55
2017-05-26T04:44:49.010Z,55
2017-05-26T04:46:10.861Z,55
2017-05-26T04:47:33.004Z,55
2017-05-26T04:48:55.481Z,65
2017-05-26T04:50:18.314Z,60
2017-05-26T04:51:40.471Z,60
2017-05-26T04:53:03.073Z,70
2017-05-26T04:54:24.924Z,75
2017-05-26T04:55:47.182Z,85
2017-05-26T04:57:09.700Z,80
2017-05-26T04:58:31.612Z,75
2017-05-26T04:59:53.801Z,75
2017-05-26T05:01:15.740Z,75
2017-05-26T05:02:37.571Z,75
2017-05-26T05:04:00.042Z,75
2017-05-26T05:05:21.990Z,75
2017-05-26T05:06:44.374Z,80
2017-05-26T05:08:06.194Z,80
2017-05-26T05:09:28.352Z,85
2017-05-26T05:10:49.871Z,85
2017-05-26T05:12:11.741Z,90
2017-05-26T05:13:33.570Z,95
2017-05-26T05:14:55.387Z,90
2017-05-26T05:16:17.317Z,90
2017-05-26T05:17:39.964Z,90
2017-05-26T05:19:02.102Z,95
2017-05-26T05:20:23.634Z,105
2017-05-26T05:21:45.854Z,105
2017-05-26T05:23:08.130Z,105
2017-05-26T05:24:30.652Z,100
2017-05-26T05:25:52.492Z,100
2017-05-26T05:27:14.980Z,100
2017-05-26T05:28:37.169Z,105
2017-05-26T05:29:59.311Z,110
2017-05-26T05:31:20.508Z,115
2017-05-26T05:32:43.079Z,120
2017-05-26T05:34:04.941Z,135
2017-05-26T05:35:26.152Z,140
2017-05-26T05:36:47.979Z,130
2017-05-26T05:38:10.450Z,125
2017-05-26T05:39:32.982Z,125
2017-05-26T05:40:55.131Z,130
2017-05-26T05:42:17.605Z,135
2017-05-26T05:43:39.433Z,140
2017-05-26T05:45:02.161Z,130
2017-05-26T05:46:23.699Z,130
2017-05-26T05:47:45.612Z,130
2017-05-26T05:49:07.925Z,130
2017-05-26T05:50:30.412Z,140
2017-05-26T05:51:52.255Z,135
2017-05-26T05:53:14.413Z,140
2017-05-26T05:54:36.249Z,140
2017-05-26T05:55:58.417Z,145
2017-05-26T05:57:20.890Z,135
2017-05-26T05:58:42.423Z,130
2017-05-26T06:00:04.240Z,135
2017-05-26T06:01:26.396Z,145
2017-05-26T06:02:48.553Z,155
2017-05-26T06:04:10.702Z,160
2017-05-26T06:05:32.539Z,155
2017-05-26T06:06:55.371Z,150
2017-05-26T06:08:17.193Z,160
2017-05-26T06:09:39.672Z,170
2017-05-26T06:11:01.523Z,175
2017-05-26T06:12:23.702Z,175
2017-05-26T06:13:46.191Z,170
2017-05-26T06:15:08.552Z,170
2017-05-26T06:16:30.731Z,155
2017-05-26T06:17:52.874Z,155
2017-05-26T06:19:15.134Z,150
2017-05-26T06:20:37.012Z,150
2017-05-26T06:21:59.178Z,150
2017-05-26T06:23:20.942Z,150
2017-05-26T06:24:42.813Z,155
2017-05-26T06:26:04.328Z,160
2017-05-26T06:27:25.832Z,175
2017-05-26T06:28:48.373Z,180
2017-05-26T06:30:10.647Z,185
2017-05-26T06:31:32.785Z,175
2017-05-26T06:32:54.971Z,150
2017-05-26T06:34:17.878Z,145
2017-05-26T06:35:39.834Z,150
2017-05-26T06:37:02.135Z,155
2017-05-26T06:38:24.283Z,155
2017-05-26T06:39:47.242Z,160
2017-05-26T06:41:09.523Z,170
2017-05-26T06:42:31.480Z,180
2017-05-26T06:43:53.784Z,170
2017-05-26T06:45:16.580Z,150
2017-05-26T06:46:39.053Z,145
2017-05-26T06:48:00.899Z,150
2017-05-26T06:49:22.413Z,160
2017-05-26T06:50:44.613Z,150
2017-05-26T06:52:06.782Z,155
2017-05-26T06:53:28.638Z,180
2017-05-26T06:54:51.127Z,195
2017-05-26T06:56:13.542Z,180
2017-05-26T06:57:35.793Z,170
2017-05-26T06:58:58.265Z,195
2017-05-26T07:00:20.115Z,225
2017-05-26T07:01:42.412Z,230
2017-05-26T07:03:03.970Z,225
2017-05-26T07:04:26.141Z,210
2017-05-26T07:05:48.031Z,215
2017-05-26T07:07:09.583Z,230
2017-05-26T07:08:31.436Z,240
2017-05-26T07:09:53.965Z,215
2017-05-26T07:11:16.306Z,210
2017-05-26T07:12:39.235Z,225
2017-05-26T07:14:00.814Z,225
2017-05-26T07:15:23.013Z,205
2017-05-26T07:16:44.844Z,235
2017-05-26T07:18:07.079Z,265
2017-05-26T07:19:29.298Z,260
2017-05-26T07:20:51.763Z,240
2017-05-26T07:22:13.725Z,235
2017-05-26T07:23:36.273Z,255
2017-05-26T07:24:57.862Z,285
2017-05-26T07:26:20.352Z,295
2017-05-26T07:27:42.553Z,275
2017-05-26T07:29:04.675Z,295
2017-05-26T07:30:27.334Z,325
2017-05-26T07:31:49.154Z,325
2017-05-26T07:33:11.663Z,375
2017-05-26T07:34:34.497Z,305
2017-05-26T07:35:56.524Z,320
2017-05-26T07:37:18.671Z,385
2017-05-26T07:38:40.871Z,370
2017-05-26T07:40:03.119Z,315
2017-05-26T07:41:25.573Z,315
2017-05-26T07:42:46.811Z,335
2017-05-26T07:44:08.983Z,430
2017-05-26T07:45:31.722Z,475
2017-05-26T07:46:53.563Z,550
2017-05-26T07:48:14.774Z,570
2017-05-26T07:49:36.615Z,440
2017-05-26T07:50:59.336Z,300
2017-05-26T07:52:21.522Z,260
2017-05-26T07:53:43.693Z,260
2017-05-26T07:55:05.863Z,315
2017-05-26T07:56:28.667Z,395
2017-05-26T07:57:50.513Z,495
2017-05-26T07:59:12.672Z,520
2017-05-26T08:00:35.021Z,540
2017-05-26T08:01:57.171Z,620
2017-05-26T08:03:19.331Z,715
2017-05-26T08:04:41.541Z,590
2017-05-26T08:06:03.738Z,560
2017-05-26T08:07:26.142Z,610
2017-05-26T08:08:47.671Z,625
2017-05-26T08:10:09.540Z,475
2017-05-26T08:11:31.856Z,440
2017-05-26T08:12:54.594Z,475
2017-05-26T08:14:17.153Z,450
2017-05-26T08:15:39.173Z,465
2017-05-26T08:17:00.714Z,530
2017-05-26T08:18:23.214Z,550
2017-05-26T08:19:45.382Z,585
2017-05-26T08:21:07.242Z,585
2017-05-26T08:22:28.452Z,570
2017-05-26T08:23:51.345Z,480
2017-05-26T08:25:12.934Z,405
2017-05-26T08:26:35.483Z,430
2017-05-26T08:27:57.954Z,395
2017-05-26T08:29:20.121Z,460
2017-05-26T08:30:41.984Z,600
2017-05-26T08:32:03.581Z,615
2017-05-26T08:33:25.734Z,570
2017-05-26T08:34:48.344Z,465
2017-05-26T08:36:10.366Z,435
2017-05-26T08:37:32.923Z,455
2017-05-26T08:38:55.070Z,470
2017-05-26T08:40:17.489Z,485
2017-05-26T08:41:40.023Z,460
2017-05-26T08:43:02.294Z,420
2017-05-26T08:44:24.454Z,425
2017-05-26T08:45:46.906Z,395
2017-05-26T08:47:09.183Z,410
2017-05-26T08:48:31.365Z,450
2017-05-26T08:49:53.627Z,520
2017-05-26T08:51:16.214Z,540
2017-05-26T08:52:38.424Z,400
2017-05-26T08:54:00.608Z,330
2017-05-26T08:55:22.476Z,330
2017-05-26T08:56:44.709Z,405
2017-05-26T08:58:07.205Z,545
2017-05-26T08:59:29.704Z,540
2017-05-26T09:00:53.726Z,435
2017-05-26T09:02:15.824Z,400
2017-05-26T09:03:38.015Z,340
2017-05-26T09:05:00.182Z,320
2017-05-26T09:06:22.032Z,335
2017-05-26T09:07:44.774Z,385
2017-05-26T09:09:06.972Z,420
2017-05-26T09:10:29.505Z,430
2017-05-26T09:11:51.997Z,440
2017-05-26T09:13:14.434Z,345
2017-05-26T09:14:36.921Z,335
2017-05-26T09:15:59.104Z,350
2017-05-26T09:17:21.264Z,305
2017-05-26T09:18:43.798Z,270
2017-05-26T09:20:06.284Z,260
2017-05-26T09:21:28.154Z,255
2017-05-26T09:22:50.633Z,245
2017-05-26T09:24:13.125Z,230
2017-05-26T09:25:35.612Z,230
2017-05-26T09:26:58.465Z,250
2017-05-26T09:28:20.626Z,260
2017-05-26T09:29:43.491Z,250
2017-05-26T09:31:05.564Z,265
2017-05-26T09:32:27.823Z,280
2017-05-26T09:33:49.995Z,255
2017-05-26T09:35:12.789Z,250
2017-05-26T09:36:35.254Z,245
2017-05-26T09:37:57.104Z,235
2017-05-26T09:39:19.252Z,235
2017-05-26T09:40:41.856Z,255
2017-05-26T09:42:04.064Z,255
2017-05-26T09:43:25.607Z,265
2017-05-26T09:44:46.905Z,260
2017-05-26T09:46:09.764Z,230
2017-05-26T09:47:32.256Z,225
2017-05-26T09:48:54.435Z,215
2017-05-26T09:50:16.605Z,210
2017-05-26T09:51:39.113Z,210
2017-05-26T09:53:01.608Z,210
2017-05-26T09:54:23.467Z,210
2017-05-26T09:55:45.307Z,205
2017-05-26T09:57:07.756Z,205
2017-05-26T09:58:29.648Z,215
2017-05-26T09:59:52.196Z,245
2017-05-26T10:01:14.373Z,240
2017-05-26T10:02:38.754Z,210
2017-05-26T10:04:00.589Z,205
2017-05-26T10:05:23.126Z,210
2017-05-26T10:06:45.298Z,240
2017-05-26T10:08:07.833Z,265
2017-05-26T10:09:29.977Z,245
2017-05-26T10:10:52.272Z,230
2017-05-26T10:12:14.126Z,225
2017-05-26T10:13:36.747Z,240
2017-05-26T10:14:58.946Z,225
2017-05-26T10:16:21.118Z,215
2017-05-26T10:17:43.688Z,200
2017-05-26T10:19:05.527Z,200
2017-05-26T10:20:27.386Z,210
2017-05-26T10:21:49.717Z,225
2017-05-26T10:23:12.287Z,225
2017-05-26T10:24:35.112Z,235
2017-05-26T10:25:57.663Z,235
2017-05-26T10:27:19.819Z,205
2017-05-26T10:28:42.279Z,195
2017-05-26T10:30:04.745Z,190
2017-05-26T10:31:26.578Z,185
2017-05-26T10:32:49.227Z,185
2017-05-26T10:34:11.425Z,185
2017-05-26T10:35:33.646Z,190
2017-05-26T10:36:56.150Z,190
2017-05-26T10:38:18.415Z,185
2017-05-26T10:39:40.595Z,185
2017-05-26T10:41:03.250Z,185
2017-05-26T10:42:25.398Z,185
2017-05-26T10:43:47.559Z,185
2017-05-26T10:45:09.757Z,185
2017-05-26T10:46:32.826Z,185
2017-05-26T10:47:54.388Z,185
2017-05-26T10:49:16.275Z,190
2017-05-26T10:50:38.448Z,190
2017-05-26T10:52:00.273Z,185
2017-05-26T10:53:22.767Z,185
2017-05-26T10:54:45.027Z,185
2017-05-26T10:56:07.500Z,180
2017-05-26T10:57:29.383Z,180
2017-05-26T10:58:51.884Z,180
2017-05-26T11:00:13.417Z,180
2017-05-26T11:01:34.958Z,185
2017-05-26T11:02:57.056Z,190
2017-05-26T11:04:19.536Z,190
2017-05-26T11:05:42.036Z,185
2017-05-26T11:07:04.546Z,190
2017-05-26T11:08:26.671Z,190
2017-05-26T11:09:49.135Z,185
2017-05-26T11:11:10.997Z,185
2017-05-26T11:12:33.167Z,180
2017-05-26T11:13:55.562Z,175
2017-05-26T11:15:18.107Z,175
2017-05-26T11:16:39.706Z,175
2017-05-26T11:18:01.554Z,175
2017-05-26T11:19:23.345Z,170
2017-05-26T11:20:45.687Z,170
2017-05-26T11:22:07.857Z,170
2017-05-26T11:23:30.487Z,170
2017-05-26T11:24:53.359Z,170
2017-05-26T11:26:15.805Z,170
2017-05-26T11:27:37.764Z,170
2017-05-26T11:28:59.716Z,170
2017-05-26T11:30:22.714Z,170
2017-05-26T11:31:44.877Z,175
2017-05-26T11:33:07.386Z,175
2017-05-26T11:34:29.579Z,175
2017-05-26T11:35:53.187Z,175
2017-05-26T11:37:15.118Z,175
2017-05-26T11:38:36.986Z,175
2017-05-26T11:39:59.156Z,175
2017-05-26T11:41:22.104Z,175
2017-05-26T11:42:44.565Z,170
2017-05-26T11:44:06.736Z,170
2017-05-26T11:45:28.921Z,170
2017-05-26T11:46:51.461Z,170
2017-05-26T11:48:13.933Z,170
2017-05-26T11:49:35.468Z,165
2017-05-26T11:50:57.634Z,165
2017-05-26T11:52:19.454Z,165
2017-05-26T11:53:40.990Z,170
2017-05-26T11:55:02.829Z,165
2017-05-26T11:56:25.226Z,165
2017-05-26T11:57:47.954Z,165
2017-05-26T11:59:09.805Z,165
2017-05-26T12:00:32.285Z,165
2017-05-26T12:01:54.328Z,165
2017-05-26T12:03:17.165Z,165
2017-05-26T12:04:39.326Z,165
2017-05-26T12:06:01.795Z,165
2017-05-26T12:07:24.434Z,165
2017-05-26T12:08:46.674Z,165
2017-05-26T12:10:09.215Z,165
2017-05-26T12:11:31.398Z,165
2017-05-26T12:12:53.578Z,160
2017-05-26T12:14:15.835Z,160
2017-05-26T12:15:38.015Z,160
2017-05-26T12:17:00.645Z,160
2017-05-26T12:18:22.483Z,160
2017-05-26T12:19:44.994Z,160
2017-05-26T12:21:07.472Z,160
2017-05-26T12:22:29.171Z,160
2017-05-26T12:23:51.040Z,160
2017-05-26T12:25:13.488Z,160
2017-05-26T12:26:35.523Z,160
2017-05-26T12:27:57.682Z,160
2017-05-26T12:29:19.920Z,160
2017-05-26T12:30:42.745Z,160
2017-05-26T12:32:05.087Z,160
2017-05-26T12:33:27.272Z,160
2017-05-26T12:34:49.583Z,160
2017-05-26T12:36:11.698Z,160
2017-05-26T12:37:34.199Z,160
2017-05-26T12:38:56.374Z,160
2017-05-26T12:40:18.568Z,160
2017-05-26T12:41:40.804Z,160
2017-05-26T12:43:03.314Z,160
2017-05-26T12:44:25.867Z,160
2017-05-26T12:45:48.035Z,160
2017-05-26T12:47:10.840Z,160
2017-05-26T12:48:33.000Z,160
2017-05-26T12:49:54.983Z,155
2017-05-26T12:51:16.535Z,155
2017-05-26T12:52:39.371Z,155
2017-05-26T12:54:01.863Z,155
2017-05-26T12:55:24.439Z,155
2017-05-26T12:56:46.613Z,155
2017-05-26T12:58:09.343Z,155
2017-05-26T12:59:31.829Z,155
2017-05-26T13:00:54.335Z,155
2017-05-26T13:02:16.600Z,155
2017-05-26T13:03:38.521Z,155
2017-05-26T13:05:01.011Z,155
2017-05-26T13:06:23.182Z,155
2017-05-26T13:07:45.089Z,155
2017-05-26T13:09:07.858Z,155
2017-05-26T13:10:29.706Z,155
2017-05-26T13:11:52.202Z,155
2017-05-26T13:13:14.373Z,150
2017-05-26T13:14:35.839Z,150
2017-05-26T13:15:58.340Z,150
2017-05-26T13:17:20.872Z,150
2017-05-26T13:18:42.419Z,150
2017-05-26T13:20:04.832Z,150
2017-05-26T13:21:26.674Z,150
2017-05-26T13:22:48.678Z,150
2017-05-26T13:24:11.206Z,150
2017-05-26T13:25:33.693Z,150
2017-05-26T13:26:56.303Z,150
2017-05-26T13:28:18.164Z,150
2017-05-26T13:29:40.492Z,150
2017-05-26T13:31:02.772Z,155
2017-05-26T13:32:25.017Z,150
2017-05-26T13:33:47.532Z,155
2017-05-26T13:35:09.749Z,150
2017-05-26T13:36:31.565Z,150
2017-05-26T13:37:53.822Z,150
2017-05-26T13:39:15.671Z,150
2017-05-26T13:40:37.652Z,150
2017-05-26T13:42:00.174Z,155
2017-05-26T13:43:22.487Z,150
2017-05-26T13:44:44.982Z,160
2017-05-26T13:46:06.844Z,160
2017-05-26T13:47:29.377Z,150
2017-05-26T13:48:52.067Z,155
2017-05-26T13:50:14.160Z,160
2017-05-26T13:51:36.039Z,155
2017-05-26T13:52:58.254Z,160
2017-05-26T13:54:20.752Z,155
2017-05-26T13:55:43.315Z,155
2017-05-26T13:57:05.503Z,155
2017-05-26T13:58:28.488Z,155
2017-05-26T13:59:50.874Z,150
2017-05-26T14:01:13.450Z,155
2017-05-26T14:02:35.720Z,155
2017-05-26T14:03:57.970Z,155
2017-05-26T14:05:20.501Z,155
2017-05-26T14:06:43.002Z,155
2017-05-26T14:08:04.843Z,155
2017-05-26T14:09:27.692Z,155
2017-05-26T14:10:50.204Z,155
2017-05-26T14:12:12.379Z,155
2017-05-26T14:13:34.980Z,160
2017-05-26T14:14:57.102Z,155
2017-05-26T14:16:19.622Z,155
2017-05-26T14:17:41.601Z,155
2017-05-26T14:19:04.102Z,160
2017-05-26T14:20:26.940Z,155
2017-05-26T14:21:49.172Z,155
2017-05-26T14:23:11.342Z,155
2017-05-26T14:24:34.062Z,155
2017-05-26T14:25:56.702Z,155
2017-05-26T14:27:18.897Z,155
2017-05-26T14:28:40.864Z,155
2017-05-26T14:30:02.864Z,155
2017-05-26T14:31:25.649Z,155
2017-05-26T14:32:47.499Z,155
2017-05-26T14:34:10.062Z,155
2017-05-26T14:35:31.929Z,155
2017-05-26T14:36:54.782Z,155
2017-05-26T14:38:16.316Z,155
2017-05-26T14:39:38.471Z,155
2017-05-26T14:41:01.001Z,155
2017-05-26T14:42:23.740Z,155
2017-05-26T14:43:45.614Z,155
2017-05-26T14:45:07.787Z,155
2017-05-26T14:46:30.441Z,155
2017-05-26T14:47:52.912Z,155
2017-05-26T14:49:15.539Z,155
2017-05-26T14:50:38.043Z,155
2017-05-26T14:52:00.568Z,150
2017-05-26T14:53:22.772Z,150
2017-05-26T14:54:44.621Z,150
2017-05-26T14:56:06.466Z,150
2017-05-26T14:57:28.001Z,150
2017-05-26T14:58:50.864Z,150
2017-05-26T15:00:13.058Z,150
2017-05-26T15:01:35.633Z,150
2017-05-26T15:02:57.811Z,150
2017-05-26T15:04:20.678Z,150
2017-05-26T15:05:42.556Z,150
2017-05-26T15:07:04.408Z,150
2017-05-26T15:08:26.924Z,150
2017-05-26T15:09:48.802Z,150
2017-05-26T15:11:11.089Z,150
2017-05-26T15:12:33.633Z,150
2017-05-26T15:13:56.232Z,150
2017-05-26T15:15:19.069Z,150
2017-05-26T15:16:41.449Z,150
2017-05-26T15:18:03.619Z,150
2017-05-26T15:19:26.124Z,150
2017-05-26T15:20:48.967Z,145
2017-05-26T15:22:10.861Z,145
2017-05-26T15:23:33.362Z,145
2017-05-26T15:24:55.619Z,145
2017-05-26T15:26:18.152Z,145
2017-05-26T15:27:40.353Z,145
2017-05-26T15:29:02.870Z,145
2017-05-26T15:30:25.399Z,145
2017-05-26T15:31:48.220Z,145
2017-05-26T15:33:12.235Z,145
2017-05-26T15:34:34.780Z,145
2017-05-26T15:35:56.647Z,145
2017-05-26T15:37:19.464Z,145
2017-05-26T15:38:41.672Z,145
2017-05-26T15:40:04.091Z,145
2017-05-26T15:41:26.612Z,145
2017-05-26T15:42:49.301Z,145
2017-05-26T15:44:12.684Z,145
2017-05-26T15:45:35.201Z,145
2017-05-26T15:46:57.716Z,145
2017-05-26T15:48:20.600Z,145
2017-05-26T15:49:43.070Z,145
2017-05-26T15:51:05.365Z,140
2017-05-26T15:52:27.548Z,140
2017-05-26T15:53:49.648Z,140
2017-05-26T15:55:11.230Z,140
2017-05-26T15:56:33.210Z,140
2017-05-26T15:57:55.680Z,140
2017-05-26T15:59:18.192Z,140
2017-05-26T16:00:40.081Z,140
2017-05-26T16:02:01.965Z,140
2017-05-26T16:03:24.161Z,140
2017-05-26T16:04:47.121Z,140
2017-05-26T16:06:09.740Z,140
2017-05-26T16:07:31.601Z,140
2017-05-26T16:08:54.119Z,140
2017-05-26T16:10:16.622Z,140
2017-05-26T16:11:38.893Z,140
2017-05-26T16:13:00.763Z,140
2017-05-26T16:14:22.991Z,140
2017-05-26T16:15:45.482Z,145
2017-05-26T16:17:07.995Z,135
2017-05-26T16:18:30.483Z,135
2017-05-26T16:19:52.707Z,135
2017-05-26T16:21:15.592Z,135
2017-05-26T16:22:37.882Z,140
2017-05-26T16:24:00.391Z,135
2017-05-26T16:25:22.893Z,135
2017-05-26T16:26:45.403Z,135
2017-05-26T16:28:07.569Z,135
2017-05-26T16:29:29.910Z,135
2017-05-26T16:30:52.493Z,135
2017-05-26T16:32:14.792Z,135
2017-05-26T16:33:37.306Z,135
2017-05-26T16:34:59.492Z,135
2017-05-26T16:36:21.355Z,135
2017-05-26T16:37:43.845Z,135
2017-05-26T16:39:06.339Z,135
2017-05-26T16:40:28.529Z,135
2017-05-26T16:41:50.750Z,135
2017-05-26T16:43:13.684Z,135
2017-05-26T16:44:35.890Z,135
2017-05-26T16:45:58.080Z,135
2017-05-26T16:47:20.247Z,135
2017-05-26T16:48:43.086Z,135
2017-05-26T16:50:05.261Z,135
2017-05-26T16:51:27.764Z,135
2017-05-26T16:52:50.021Z,135
2017-05-26T16:54:12.876Z,135
2017-05-26T16:55:35.461Z,130
2017-05-26T16:56:57.822Z,130
2017-05-26T16:58:19.826Z,135
2017-05-26T16:59:42.383Z,130
2017-05-26T17:01:04.596Z,130
2017-05-26T17:02:26.847Z,130
2017-05-26T17:03:48.739Z,130
2017-05-26T17:05:11.047Z,130
2017-05-26T17:06:32.720Z,130
2017-05-26T17:07:54.927Z,125
2017-05-26T17:09:17.222Z,125
2017-05-26T17:10:40.069Z,125
2017-05-26T17:12:01.967Z,125
2017-05-26T17:13:24.158Z,125
2017-05-26T17:14:46.342Z,125
2017-05-26T17:16:08.532Z,125
2017-05-26T17:17:30.690Z,120
2017-05-26T17:18:52.920Z,120
2017-05-26T17:20:14.782Z,120
2017-05-26T17:21:37.153Z,120
2017-05-26T17:22:58.997Z,120
2017-05-26T17:24:21.190Z,120
2017-05-26T17:25:43.719Z,115
2017-05-26T17:27:06.329Z,115
2017-05-26T17:28:28.510Z,115
2017-05-26T17:29:50.680Z,115
2017-05-26T17:31:13.148Z,115
2017-05-26T17:32:35.728Z,115
2017-05-26T17:33:57.901Z,110
2017-05-26T17:35:19.738Z,110
2017-05-26T17:36:41.899Z,110
2017-05-26T17:38:04.889Z,110
2017-05-26T17:39:27.400Z,110
2017-05-26T17:40:49.550Z,105
2017-05-26T17:42:12.059Z,105
2017-05-26T17:43:34.513Z,105
2017-05-26T17:44:56.748Z,105
2017-05-26T17:46:18.589Z,105
2017-05-26T17:47:40.759Z,105
2017-05-26T17:49:03.667Z,105
2017-05-26T17:50:26.300Z,100
2017-05-26T17:51:48.782Z,100
2017-05-26T17:53:10.661Z,100
2017-05-26T17:54:33.311Z,100
2017-05-26T17:55:55.481Z,100
2017-05-26T17:57:18.091Z,100
2017-05-26T17:58:40.251Z,95
2017-05-26T18:00:02.981Z,95
2017-05-26T18:01:25.249Z,95
2017-05-26T18:02:47.309Z,95
2017-05-26T18:04:09.169Z,95
2017-05-26T18:05:31.132Z,90
2017-05-26T18:06:53.470Z,90
2017-05-26T18:08:15.331Z,90
2017-05-26T18:09:37.884Z,90
2017-05-26T18:11:00.461Z,90
2017-05-26T18:12:22.954Z,90
2017-05-26T18:13:45.212Z,90
2017-05-26T18:15:07.730Z,90
2017-05-26T18:16:30.340Z,90
2017-05-26T18:17:52.193Z,85
2017-05-26T18:19:14.706Z,85
2017-05-26T18:20:36.932Z,85
2017-05-26T18:21:59.090Z,85
2017-05-26T18:23:21.294Z,80
2017-05-26T18:24:42.850Z,80
2017-05-26T18:26:06.291Z,80
2017-05-26T18:27:29.135Z,80
2017-05-26T18:28:51.632Z,75
2017-05-26T18:30:13.345Z,75
2017-05-26T18:31:35.211Z,75
2017-05-26T18:32:57.832Z,70
2017-05-26T18:34:20.171Z,70
2017-05-26T18:35:42.798Z,70
2017-05-26T18:37:05.361Z,70
2017-05-26T18:38:28.393Z,65
2017-05-26T18:39:50.271Z,65
2017-05-26T18:41:12.570Z,65
2017-05-26T18:42:34.471Z,60
2017-05-26T18:43:56.693Z,60
2017-05-26T18:45:19.190Z,60
2017-05-26T18:46:41.410Z,55
2017-05-26T18:48:03.609Z,55
2017-05-26T18:49:26.394Z,55
2017-05-26T18:50:48.574Z,50
2017-05-26T18:52:11.192Z,50
2017-05-26T18:53:33.692Z,50
2017-05-26T18:54:56.186Z,50
2017-05-26T18:56:18.363Z,50
2017-05-26T18:57:40.917Z,45
2017-05-26T18:59:03.112Z,45
2017-05-26T19:00:25.983Z,45
2017-05-26T19:01:48.170Z,40
2017-05-26T19:03:10.731Z,40
2017-05-26T19:04:32.613Z,35
2017-05-26T19:05:54.843Z,35
2017-05-26T19:07:17.333Z,35
2017-05-26T19:08:39.838Z,30
2017-05-26T19:10:01.690Z,30
2017-05-26T19:11:23.933Z,30
2017-05-26T19:12:46.463Z,25